Time;durP1;ratioP1;P1;durP2;ratioP2;P2;SDS_P1;SDS_P2;PMS_P1;PMS_P2;Temp;Humidity;BMP_temperature;BMP_pressure;BME280_temperature;BME280_humidity;BME280_pressure;Samples;Min_cycle;Max_cycle;Signal;HPM_P1;HPM_P2
2022/01/16 00:04:56;;;;;;;2.47;1.20;;;9.20;64.80;;;;;;4993153;28;20040;-88
2022/01/16 00:07:22;;;;;;;1.98;1.60;;;9.20;64.50;;;;;;4992233;28;20034;-82
2022/01/16 00:09:48;;;;;;;3.28;1.60;;;9.20;64.40;;;;;;4976113;28;20583;-84
2022/01/16 00:12:18;;;;;;;2.08;1.40;;;9.20;64.00;;;;;;4961044;28;20054;-86
2022/01/16 00:14:44;;;;;;;1.98;1.33;;;9.20;64.00;;;;;;4976011;28;20831;-86
2022/01/16 00:17:10;;;;;;;2.28;1.27;;;9.10;63.80;;;;;;4979283;28;20038;-86
2022/01/16 00:19:35;;;;;;;4.00;1.40;;;9.20;63.80;;;;;;4990842;28;20516;-88
2022/01/16 00:22:08;;;;;;;2.25;1.20;;;9.20;63.90;;;;;;4958111;28;20111;-87
2022/01/16 00:24:34;;;;;;;2.15;1.40;;;9.20;63.60;;;;;;4956847;28;20050;-87
2022/01/16 00:27:00;;;;;;;2.17;1.35;;;9.20;63.60;;;;;;4970218;28;20120;-86
2022/01/16 00:29:28;;;;;;;1.80;1.23;;;9.10;63.40;;;;;;4958377;28;20038;-86
2022/01/16 00:31:54;;;;;;;1.58;1.02;;;9.10;63.40;;;;;;4990631;28;20124;-87
2022/01/16 00:34:20;;;;;;;2.13;1.25;;;9.20;63.60;;;;;;4958713;28;20049;-86
2022/01/16 00:36:46;;;;;;;1.88;1.30;;;9.10;63.30;;;;;;4973768;28;20038;-87
2022/01/16 00:39:12;;;;;;;2.00;1.15;;;9.20;63.80;;;;;;4991139;28;20480;-86
2022/01/16 00:41:38;;;;;;;2.13;1.20;;;9.20;63.70;;;;;;5020063;28;20098;-87
2022/01/16 00:44:04;;;;;;;1.55;1.25;;;9.20;63.90;;;;;;5039905;28;20034;-84
2022/01/16 00:46:30;;;;;;;1.75;1.30;;;9.20;63.90;;;;;;5037013;28;20120;-88
2022/01/16 00:48:56;;;;;;;1.58;1.20;;;9.20;63.50;;;;;;5034636;28;20543;-85
2022/01/16 00:51:22;;;;;;;1.40;1.10;;;9.20;64.10;;;;;;5038595;28;20031;-87
2022/01/16 00:53:48;;;;;;;2.17;1.10;;;9.20;63.50;;;;;;5038753;28;20037;-86
2022/01/16 00:56:14;;;;;;;1.80;1.30;;;9.10;63.60;;;;;;5038965;28;20053;-87
2022/01/16 00:58:40;;;;;;;3.03;1.25;;;9.20;63.40;;;;;;5041510;28;20036;-85
2022/01/16 01:01:07;;;;;;;1.25;1.00;;;9.20;63.30;;;;;;5025450;28;20488;-87
2022/01/16 01:03:33;;;;;;;2.03;1.23;;;9.10;63.30;;;;;;5038867;28;20504;-87
2022/01/16 01:06:00;;;;;;;2.00;1.10;;;9.10;63.20;;;;;;5044983;28;20067;-86
2022/01/16 01:08:28;;;;;;;2.70;1.20;;;9.10;63.10;;;;;;5042739;28;20565;-84
2022/01/16 01:10:55;;;;;;;2.50;1.17;;;9.10;63.00;;;;;;5047132;28;20041;-86
2022/01/16 01:13:23;;;;;;;1.80;1.05;;;9.10;62.90;;;;;;5045855;28;20077;-87
2022/01/16 01:15:58;;;;;;;1.33;0.80;;;9.10;62.90;;;;;;5037553;28;20029;-87
2022/01/16 01:18:25;;;;;;;2.17;1.30;;;9.10;62.80;;;;;;5034068;28;20419;-85
2022/01/16 01:20:52;;;;;;;1.50;1.33;;;9.10;62.80;;;;;;5035507;28;20632;-87
2022/01/16 01:23:18;;;;;;;1.58;1.10;;;9.00;62.50;;;;;;5034685;28;20072;-87
2022/01/16 01:25:44;;;;;;;1.48;0.90;;;9.00;62.30;;;;;;5034917;28;20029;-87
2022/01/16 01:28:11;;;;;;;1.92;1.25;;;9.00;62.30;;;;;;5035688;28;20049;-87
2022/01/16 01:30:39;;;;;;;1.45;1.10;;;9.00;62.10;;;;;;5034859;28;20072;-87
2022/01/16 01:33:06;;;;;;;1.63;1.00;;;9.10;62.20;;;;;;5031733;28;20033;-85
2022/01/16 01:35:38;;;;;;;2.17;1.20;;;9.00;62.30;;;;;;5033441;28;20116;-85
2022/01/16 01:38:06;;;;;;;2.70;1.27;;;9.00;62.00;;;;;;5033631;28;20127;-85
2022/01/16 01:40:32;;;;;;;1.50;0.90;;;9.00;62.30;;;;;;5027157;28;20434;-87
2022/01/16 01:50:59;;;;;;;1.98;1.23;;;9.00;62.00;;;;;;5035073;28;20115;-86
2022/01/16 01:51:42;;;;;;;0.90;0.80;;;9.00;61.90;;;;;;5033450;28;20365;-86
2022/01/16 01:54:08;;;;;;;1.20;1.08;;;9.00;62.00;;;;;;5035087;28;20411;-87
2022/01/16 01:56:37;;;;;;;1.20;1.08;;;9.00;62.60;;;;;;5035807;28;20067;-87
2022/01/16 01:59:03;;;;;;;2.38;0.93;;;9.00;62.40;;;;;;5032713;28;20522;-88
2022/01/16 02:01:30;;;;;;;1.60;1.23;;;8.90;61.80;;;;;;5032466;28;20032;-87
2022/01/16 02:03:57;;;;;;;1.58;1.23;;;9.00;61.70;;;;;;5032796;28;20067;-88
2022/01/16 02:06:26;;;;;;;1.23;0.90;;;9.00;61.50;;;;;;5033240;28;20030;-88
2022/01/16 02:08:55;;;;;;;1.17;0.98;;;9.00;61.30;;;;;;5033999;28;20076;-88
2022/01/16 02:11:24;;;;;;;1.50;0.90;;;9.00;61.30;;;;;;5033791;28;20049;-89
2022/01/16 02:28:08;;;;;;;1.67;1.10;;;8.90;61.10;;;;;;5034206;28;20037;-86
2022/01/16 02:34:28;;;;;;;1.52;1.20;;;8.90;60.90;;;;;;5041462;28;20025;-87
2022/01/16 02:36:12;;;;;;;1.77;1.27;;;8.90;60.70;;;;;;5034719;28;20046;-91
2022/01/16 02:38:38;;;;;;;2.00;1.30;;;8.90;60.60;;;;;;5034589;28;20071;-88
2022/01/16 02:41:05;;;;;;;1.10;0.95;;;8.90;60.60;;;;;;5033410;28;20030;-89
2022/01/16 02:43:34;;;;;;;1.63;1.17;;;8.90;60.60;;;;;;5035436;28;20475;-89
2022/01/16 02:48:47;;;;;;;2.35;1.40;;;8.90;60.90;;;;;;5038726;28;20062;-89
2022/01/16 02:51:20;;;;;;;1.67;0.90;;;8.90;61.10;;;;;;5035759;28;20116;-89
2022/01/16 02:53:47;;;;;;;2.53;1.02;;;8.90;61.60;;;;;;5040190;28;20492;-90
2022/01/16 02:56:14;;;;;;;1.50;1.27;;;8.90;61.50;;;;;;5045897;28;20049;-88
2022/01/16 02:58:41;;;;;;;0.82;0.80;;;8.90;61.70;;;;;;5024180;28;20040;-90
2022/01/16 03:01:07;;;;;;;2.75;1.30;;;8.90;61.70;;;;;;5025518;28;20025;-90
2022/01/16 03:03:33;;;;;;;2.05;1.30;;;8.90;61.60;;;;;;5024929;28;20094;-88
2022/01/16 03:05:59;;;;;;;2.00;1.10;;;8.90;61.60;;;;;;5038362;28;21186;-88
2022/01/16 03:08:25;;;;;;;1.98;1.30;;;8.90;61.80;;;;;;5034819;28;20033;-86
2022/01/16 03:13:32;;;;;;;1.48;1.13;;;8.90;62.00;;;;;;5035603;28;20095;-88
2022/01/16 03:15:58;;;;;;;1.25;1.10;;;8.90;61.90;;;;;;5036064;28;20040;-87
2022/01/16 03:23:34;;;;;;;1.85;0.93;;;8.90;62.00;;;;;;5039235;28;20407;-88
2022/01/16 03:26:01;;;;;;;1.38;0.93;;;8.90;61.70;;;;;;5035734;28;20030;-86
2022/01/16 03:28:27;;;;;;;1.45;1.17;;;9.00;61.70;;;;;;5035828;28;20076;-87
2022/01/16 03:30:55;;;;;;;2.88;1.27;;;8.90;61.80;;;;;;5035037;28;20419;-86
2022/01/16 03:33:21;;;;;;;1.98;1.35;;;8.90;61.90;;;;;;5036881;28;20174;-88
2022/01/16 03:35:48;;;;;;;1.33;1.02;;;8.90;61.50;;;;;;5035243;28;20072;-87
2022/01/16 03:38:14;;;;;;;2.42;1.33;;;8.90;61.50;;;;;;5035474;28;20040;-89
2022/01/16 03:40:40;;;;;;;1.80;1.17;;;8.90;61.50;;;;;;5037054;28;20059;-91
2022/01/16 03:43:13;;;;;;;1.45;1.10;;;8.90;61.30;;;;;;5038903;28;20118;-91
2022/01/16 03:45:46;;;;;;;1.83;0.80;;;8.90;61.50;;;;;;5036632;28;20032;-92
2022/01/16 03:48:14;;;;;;;1.45;0.95;;;8.90;61.10;;;;;;5039312;28;20065;-93
2022/01/16 03:50:40;;;;;;;1.67;1.08;;;8.90;61.30;;;;;;5040625;28;20033;-92
2022/01/16 03:53:06;;;;;;;1.27;1.13;;;8.90;61.60;;;;;;5039526;28;20682;-92
2022/01/16 03:55:34;;;;;;;1.83;1.30;;;8.90;61.10;;;;;;5034204;28;20045;-89
2022/01/16 03:58:00;;;;;;;3.55;1.58;;;8.90;61.50;;;;;;5038304;28;20029;-92
2022/01/16 04:00:26;;;;;;;1.13;1.02;;;8.90;61.60;;;;;;5035253;28;20033;-91
2022/01/16 04:02:53;;;;;;;1.35;1.05;;;8.90;61.50;;;;;;5035618;28;20561;-89
2022/01/16 04:05:19;;;;;;;1.25;0.82;;;8.90;61.60;;;;;;5035544;28;20482;-93
2022/01/16 04:07:45;;;;;;;1.55;1.10;;;8.90;61.50;;;;;;5034689;28;20037;-86
2022/01/16 04:10:11;;;;;;;2.55;0.85;;;8.90;61.50;;;;;;5034788;28;20095;-90
2022/01/16 04:12:39;;;;;;;0.65;0.65;;;8.90;61.60;;;;;;5034857;28;20525;-90
2022/01/16 04:17:38;;;;;;;2.38;1.05;;;8.90;61.90;;;;;;5034786;28;20040;-87
2022/01/16 04:20:05;;;;;;;2.13;0.80;;;8.90;61.80;;;;;;5034081;28;20091;-87
2022/01/16 04:22:31;;;;;;;1.30;1.00;;;8.90;61.80;;;;;;5034331;28;20120;-89
2022/01/16 04:24:57;;;;;;;2.42;1.10;;;8.90;61.80;;;;;;5024232;28;20415;-88
2022/01/16 04:27:23;;;;;;;2.42;1.10;;;8.90;62.20;;;;;;5036301;28;20033;-89
2022/01/16 04:29:49;;;;;;;2.85;1.10;;;8.90;62.20;;;;;;5035106;28;20033;-91
2022/01/16 04:32:15;;;;;;;1.38;1.20;;;8.90;62.10;;;;;;5037454;28;20029;-90
2022/01/16 04:34:41;;;;;;;3.33;1.30;;;8.90;62.00;;;;;;5033839;28;20132;-89
2022/01/16 04:37:07;;;;;;;4.32;1.20;;;8.90;61.80;;;;;;5034006;28;20124;-90
2022/01/16 04:39:35;;;;;;;1.20;1.08;;;8.90;61.80;;;;;;5035789;28;20029;-89
2022/01/16 04:44:52;;;;;;;1.80;1.17;;;8.90;61.60;;;;;;5035668;28;20032;-88
2022/01/16 04:47:18;;;;;;;3.80;1.00;;;8.90;61.70;;;;;;5034535;28;20049;-91
2022/01/16 04:49:44;;;;;;;1.38;0.85;;;8.90;61.80;;;;;;5038789;28;20562;-88
2022/01/16 04:52:10;;;;;;;1.90;1.30;;;8.90;61.70;;;;;;5035227;28;20051;-88
2022/01/16 04:54:36;;;;;;;1.00;0.70;;;8.90;61.70;;;;;;5019654;28;20041;-88
2022/01/16 04:57:02;;;;;;;1.00;0.85;;;8.90;61.70;;;;;;5033198;28;20063;-87
2022/01/16 04:59:28;;;;;;;1.00;0.90;;;8.90;61.90;;;;;;5033351;28;20029;-88
2022/01/16 05:01:54;;;;;;;1.27;0.98;;;8.90;61.90;;;;;;5034864;28;20033;-88
2022/01/16 05:04:20;;;;;;;1.15;0.88;;;8.90;61.90;;;;;;5034201;28;20376;-88
2022/01/16 05:06:45;;;;;;;5.85;1.23;;;8.90;61.80;;;;;;5034482;28;20790;-86
2022/01/16 05:09:11;;;;;;;2.47;1.00;;;9.00;62.00;;;;;;5040210;28;20033;-87
2022/01/16 05:11:38;;;;;;;1.13;0.80;;;8.90;62.10;;;;;;5041351;28;20450;-88
2022/01/16 05:16:40;;;;;;;2.42;1.00;;;8.90;61.80;;;;;;5043495;28;20120;-92
2022/01/16 05:19:10;;;;;;;0.90;0.70;;;8.90;62.00;;;;;;5034113;28;20155;-86
2022/01/16 05:21:37;;;;;;;1.95;0.98;;;8.90;61.90;;;;;;5034723;28;20053;-90
2022/01/16 05:24:09;;;;;;;1.63;0.88;;;8.90;61.80;;;;;;5035407;28;20447;-90
2022/01/16 05:26:36;;;;;;;3.28;1.05;;;8.90;61.70;;;;;;5034874;28;20040;-90
2022/01/16 05:29:03;;;;;;;1.92;0.90;;;8.90;62.00;;;;;;5019295;28;20040;-90
2022/01/16 05:31:29;;;;;;;1.30;0.93;;;8.90;61.80;;;;;;5033564;28;20042;-86
2022/01/16 05:33:55;;;;;;;0.77;0.77;;;8.90;61.80;;;;;;5034609;28;20036;-90
2022/01/16 05:36:22;;;;;;;1.38;0.90;;;8.90;61.90;;;;;;5031830;28;20041;-85
2022/01/16 05:38:49;;;;;;;0.88;0.80;;;8.90;61.80;;;;;;5032764;28;20068;-88
2022/01/16 05:41:18;;;;;;;1.13;0.80;;;8.90;61.50;;;;;;5032307;28;20021;-90
2022/01/16 05:43:47;;;;;;;0.90;0.80;;;8.90;61.60;;;;;;5032786;28;20084;-90
2022/01/16 05:46:14;;;;;;;0.80;0.77;;;8.90;61.70;;;;;;5037084;28;20056;-88
2022/01/16 05:48:40;;;;;;;1.45;0.90;;;9.00;61.50;;;;;;5034947;28;20458;-90
2022/01/16 05:51:08;;;;;;;1.80;0.90;;;8.90;61.80;;;;;;5032319;28;20086;-91
2022/01/16 05:53:35;;;;;;;2.40;0.80;;;8.90;61.60;;;;;;5034362;28;20043;-90
2022/01/16 05:56:01;;;;;;;0.80;0.60;;;9.00;61.60;;;;;;5026366;28;20130;-90
2022/01/16 05:58:26;;;;;;;1.27;0.90;;;8.90;61.60;;;;;;5033309;28;20029;-88
2022/01/16 06:00:52;;;;;;;0.88;0.75;;;9.00;61.80;;;;;;5033555;28;20040;-91
2022/01/16 06:03:20;;;;;;;1.55;0.70;;;9.00;61.80;;;;;;5031105;28;20029;-89
2022/01/16 06:05:46;;;;;;;0.70;0.70;;;9.00;61.80;;;;;;5031135;28;20124;-86
2022/01/16 06:08:13;;;;;;;1.40;0.60;;;9.00;61.80;;;;;;5025222;28;20030;-90
2022/01/16 06:10:40;;;;;;;0.95;0.52;;;9.00;61.60;;;;;;5033351;28;20069;-89
2022/01/16 06:13:07;;;;;;;1.00;0.80;;;9.00;61.80;;;;;;5033135;28;20053;-88
2022/01/16 06:15:33;;;;;;;0.70;0.47;;;9.00;61.80;;;;;;5032153;28;20567;-87
2022/01/16 06:18:00;;;;;;;1.35;0.60;;;9.00;61.70;;;;;;5034170;28;20518;-90
2022/01/16 06:20:27;;;;;;;0.70;0.60;;;9.00;61.60;;;;;;5024830;28;20032;-91
2022/01/16 06:22:53;;;;;;;1.45;0.55;;;9.00;61.90;;;;;;5035142;28;20068;-90
2022/01/16 06:25:20;;;;;;;0.82;0.68;;;9.00;61.60;;;;;;5038814;28;20029;-88
2022/01/16 06:27:46;;;;;;;0.88;0.70;;;9.00;61.60;;;;;;5037098;28;20143;-88
2022/01/16 06:30:12;;;;;;;0.93;0.50;;;9.00;62.00;;;;;;5038183;28;20033;-88
2022/01/16 06:32:38;;;;;;;2.17;0.55;;;9.00;62.30;;;;;;5035643;28;20037;-89
2022/01/16 06:35:06;;;;;;;0.90;0.63;;;9.00;62.40;;;;;;5037807;28;20461;-87
2022/01/16 06:37:32;;;;;;;0.90;0.50;;;9.00;62.30;;;;;;5040351;28;20029;-91
2022/01/16 06:39:58;;;;;;;0.75;0.60;;;9.00;62.20;;;;;;5025108;28;20103;-90
2022/01/16 06:42:24;;;;;;;1.30;0.70;;;9.00;62.20;;;;;;5038673;28;20029;-86
2022/01/16 06:44:50;;;;;;;1.40;0.40;;;9.00;62.50;;;;;;5043019;28;20170;-89
2022/01/16 06:47:16;;;;;;;0.82;0.55;;;9.00;63.10;;;;;;5039651;28;20045;-89
2022/01/16 06:49:42;;;;;;;1.58;0.40;;;9.00;62.20;;;;;;5039576;28;20029;-88
2022/01/16 06:52:09;;;;;;;0.73;0.60;;;9.10;62.30;;;;;;5036518;28;20048;-89
2022/01/16 06:54:35;;;;;;;0.43;0.35;;;9.10;62.20;;;;;;5036764;28;20025;-84
2022/01/16 06:57:01;;;;;;;2.75;0.35;;;9.00;62.10;;;;;;5036415;28;20452;-85
2022/01/16 06:59:27;;;;;;;0.30;0.30;;;9.00;61.60;;;;;;5035492;28;20043;-89
2022/01/16 07:01:53;;;;;;;4.80;0.55;;;9.10;61.70;;;;;;5037157;28;20021;-88
2022/01/16 07:04:19;;;;;;;2.47;0.50;;;9.10;61.60;;;;;;5053817;28;20377;-87
2022/01/16 07:06:45;;;;;;;0.93;0.50;;;9.10;61.80;;;;;;5038810;28;20515;-86
2022/01/16 07:09:11;;;;;;;2.08;0.52;;;9.10;61.90;;;;;;5028623;28;20044;-86
2022/01/16 07:11:37;;;;;;;0.85;0.52;;;9.10;61.90;;;;;;5020085;28;20424;-85
2022/01/16 07:14:02;;;;;;;0.77;0.50;;;9.10;61.90;;;;;;5040799;28;20087;-84
2022/01/16 07:16:28;;;;;;;1.23;0.38;;;9.10;62.00;;;;;;5045807;28;20463;-87
2022/01/16 07:18:54;;;;;;;1.17;0.45;;;9.10;61.80;;;;;;5034385;28;20036;-87
2022/01/16 07:21:20;;;;;;;3.33;0.60;;;9.10;61.90;;;;;;5041946;28;20060;-86
2022/01/16 07:23:48;;;;;;;0.57;0.40;;;9.10;62.00;;;;;;5040021;28;20044;-85
2022/01/16 07:26:16;;;;;;;0.73;0.40;;;9.10;61.90;;;;;;5042228;28;20048;-85
2022/01/16 07:28:43;;;;;;;1.33;0.50;;;9.10;61.90;;;;;;5044791;28;20404;-85
2022/01/16 07:31:09;;;;;;;1.05;0.50;;;9.10;62.20;;;;;;5038243;28;20128;-84
2022/01/16 07:33:34;;;;;;;1.20;0.57;;;9.10;62.20;;;;;;5039351;28;20144;-85
2022/01/16 07:36:01;;;;;;;1.00;0.43;;;9.10;62.40;;;;;;5042552;28;20037;-85
2022/01/16 07:38:27;;;;;;;0.90;0.70;;;9.10;62.40;;;;;;5048667;28;20116;-86
2022/01/16 07:40:53;;;;;;;0.90;0.60;;;9.10;62.60;;;;;;5041677;28;20119;-91
2022/01/16 07:43:20;;;;;;;1.63;0.60;;;9.10;62.40;;;;;;5047400;28;20040;-91
2022/01/16 07:45:47;;;;;;;1.10;0.57;;;9.10;62.50;;;;;;5035286;28;20028;-87
2022/01/16 07:48:13;;;;;;;1.48;0.65;;;9.10;62.70;;;;;;5050272;28;20542;-92
2022/01/16 07:50:39;;;;;;;0.68;0.45;;;9.10;62.90;;;;;;5033095;28;20128;-94
2022/01/16 07:53:06;;;;;;;1.42;0.60;;;9.10;62.90;;;;;;5030069;28;20077;-92
2022/01/16 07:55:32;;;;;;;4.20;0.52;;;9.10;63.00;;;;;;5048889;28;20483;-95
2022/01/16 07:57:59;;;;;;;1.70;0.50;;;9.10;62.80;;;;;;5037240;28;20120;-94
2022/01/16 08:00:26;;;;;;;2.75;0.40;;;9.10;62.90;;;;;;5052981;28;20064;-93
2022/01/16 08:02:53;;;;;;;1.92;0.50;;;9.10;62.80;;;;;;5023024;28;20083;-91
2022/01/16 08:05:20;;;;;;;0.63;0.40;;;9.10;62.90;;;;;;5033400;28;20033;-91
2022/01/16 08:07:47;;;;;;;1.63;0.50;;;9.10;62.90;;;;;;5043347;28;20088;-94
2022/01/16 08:10:17;;;;;;;1.00;0.40;;;9.20;63.20;;;;;;5040312;28;20065;-96
2022/01/16 08:12:47;;;;;;;0.57;0.57;;;9.20;63.30;;;;;;5052360;28;20033;-96
2022/01/16 08:17:58;;;;;;;1.55;0.38;;;9.20;62.60;;;;;;5063818;28;20056;-93
2022/01/16 08:20:24;;;;;;;1.80;0.43;;;9.20;62.70;;;;;;5058475;28;20048;-93
2022/01/16 08:22:50;;;;;;;0.65;0.43;;;9.20;62.60;;;;;;5029156;28;20033;-92
2022/01/16 08:25:16;;;;;;;0.47;0.32;;;9.20;62.60;;;;;;5038560;28;20060;-90
2022/01/16 08:27:42;;;;;;;1.10;0.40;;;9.30;62.70;;;;;;5032610;28;21199;-92
2022/01/16 08:30:09;;;;;;;3.10;0.65;;;9.30;62.80;;;;;;5053026;28;20113;-93
2022/01/16 08:32:37;;;;;;;0.80;0.43;;;9.30;62.90;;;;;;5015765;28;20025;-95
2022/01/16 08:35:03;;;;;;;1.38;0.57;;;9.30;62.80;;;;;;5021070;28;20033;-93
2022/01/16 08:37:29;;;;;;;2.55;0.40;;;9.30;62.80;;;;;;5020618;28;20053;-92
2022/01/16 08:39:56;;;;;;;0.80;0.60;;;9.30;62.60;;;;;;5030476;28;20029;-94
2022/01/16 08:42:22;;;;;;;0.88;0.70;;;9.30;62.40;;;;;;5018650;28;20033;-93
2022/01/16 08:47:24;;;;;;;1.02;0.43;;;9.30;62.40;;;;;;5030821;26;20524;-92
2022/01/16 08:49:50;;;;;;;2.20;0.63;;;9.40;62.30;;;;;;5014544;28;20025;-90
2022/01/16 08:52:18;;;;;;;2.13;0.55;;;9.40;62.20;;;;;;5015359;28;20040;-94
2022/01/16 08:54:44;;;;;;;3.22;0.50;;;9.40;62.10;;;;;;5032918;28;20040;-91
2022/01/16 08:57:10;;;;;;;2.40;1.08;;;9.40;62.20;;;;;;5019078;28;20105;-92
2022/01/16 08:59:36;;;;;;;0.32;0.32;;;9.40;62.70;;;;;;4996717;28;20271;-91
2022/01/16 09:02:02;;;;;;;0.90;0.50;;;9.40;62.50;;;;;;5031448;28;20059;-89
2022/01/16 09:04:28;;;;;;;1.23;0.57;;;9.40;62.50;;;;;;5040961;28;20046;-93
2022/01/16 09:06:54;;;;;;;2.72;0.60;;;9.40;62.80;;;;;;5000305;28;20040;-91
2022/01/16 09:09:20;;;;;;;1.45;0.40;;;9.40;63.00;;;;;;5030318;28;20029;-90
2022/01/16 09:11:47;;;;;;;1.15;0.40;;;9.40;63.00;;;;;;5017106;28;20100;-93
2022/01/16 09:14:14;;;;;;;0.80;0.63;;;9.40;62.90;;;;;;5037209;28;20029;-91
2022/01/16 09:16:43;;;;;;;0.95;0.40;;;9.50;63.00;;;;;;5022952;28;20037;-93
2022/01/16 09:19:09;;;;;;;1.65;0.50;;;9.40;62.90;;;;;;5024412;28;20124;-93
2022/01/16 09:21:36;;;;;;;1.60;0.50;;;9.40;62.70;;;;;;5017112;28;20037;-91
2022/01/16 09:24:02;;;;;;;0.93;0.35;;;9.40;62.50;;;;;;5036451;28;20639;-89
2022/01/16 09:26:28;;;;;;;0.95;0.40;;;9.40;62.60;;;;;;5148403;22;20045;-89
2022/01/16 09:28:54;;;;;;;1.35;0.40;;;9.40;62.70;;;;;;5095451;22;20057;-92
2022/01/16 09:31:21;;;;;;;1.40;0.40;;;9.50;62.70;;;;;;5252524;22;20938;-92
2022/01/16 09:33:47;;;;;;;1.00;0.40;;;9.50;62.50;;;;;;5056585;28;20024;-92
2022/01/16 09:36:13;;;;;;;0.85;0.52;;;9.50;62.60;;;;;;5051161;28;20123;-93
2022/01/16 09:38:40;;;;;;;2.65;0.68;;;9.50;62.80;;;;;;5050667;28;20029;-92
2022/01/16 09:41:06;;;;;;;1.67;0.50;;;9.50;63.30;;;;;;5036736;28;20135;-89
2022/01/16 09:43:34;;;;;;;1.17;0.50;;;9.50;63.70;;;;;;5046787;28;20043;-92
2022/01/16 09:46:02;;;;;;;0.50;0.40;;;9.50;63.50;;;;;;5067454;28;20025;-95
2022/01/16 09:48:28;;;;;;;0.70;0.35;;;9.50;63.60;;;;;;5047912;28;20036;-92
2022/01/16 09:50:57;;;;;;;0.77;0.60;;;9.50;63.40;;;;;;5031193;28;20025;-92
2022/01/16 09:53:24;;;;;;;1.38;0.43;;;9.50;63.00;;;;;;5071990;28;20044;-95
2022/01/16 09:55:50;;;;;;;1.92;0.63;;;9.60;63.10;;;;;;5038174;28;20080;-90
2022/01/16 09:58:17;;;;;;;1.45;0.77;;;9.60;63.20;;;;;;5045544;28;20055;-95
2022/01/16 10:00:43;;;;;;;1.40;0.65;;;9.60;62.90;;;;;;5050552;28;20036;-94
2022/01/16 10:03:30;;;;;;;1.38;0.50;;;9.60;62.50;;;;;;5043152;28;20090;-94
2022/01/16 10:06:20;;;;;;;1.10;0.60;;;9.60;62.50;;;;;;5069353;28;20029;-94
2022/01/16 10:08:51;;;;;;;2.30;0.40;;;9.60;62.40;;;;;;5043932;28;20055;-92
2022/01/16 10:11:29;;;;;;;3.58;0.52;;;9.60;62.80;;;;;;5102264;23;20049;-92
2022/01/16 10:16:49;;;;;;;0.80;0.50;;;9.60;62.90;;;;;;5499092;22;20049;-90
2022/01/16 10:19:32;;;;;;;3.63;0.68;;;9.60;63.00;;;;;;5053769;28;20109;-88
2022/01/16 10:22:04;;;;;;;1.10;0.50;;;9.60;63.00;;;;;;5066893;28;20045;-91
2022/01/16 10:24:33;;;;;;;2.25;0.50;;;9.70;63.20;;;;;;5053711;28;20036;-94
2022/01/16 10:27:08;;;;;;;1.90;0.90;;;9.70;63.10;;;;;;5060754;28;20029;-91
2022/01/16 10:29:40;;;;;;;2.92;0.70;;;9.70;63.50;;;;;;5062377;28;20056;-93
2022/01/16 10:32:20;;;;;;;1.85;0.80;;;9.70;63.40;;;;;;5061435;28;20037;-94
2022/01/16 10:35:07;;;;;;;2.50;1.08;;;9.70;63.50;;;;;;5064000;28;20021;-91
2022/01/16 10:37:34;;;;;;;2.40;0.85;;;9.70;63.60;;;;;;5046666;28;20160;-86
2022/01/16 10:40:06;;;;;;;1.85;1.00;;;9.70;64.00;;;;;;5042979;28;20068;-89
2022/01/16 10:42:34;;;;;;;1.63;0.88;;;9.70;63.40;;;;;;5055606;28;20037;-90
2022/01/16 10:45:10;;;;;;;2.15;0.82;;;9.70;63.50;;;;;;5059351;28;20032;-91
2022/01/16 10:47:44;;;;;;;2.70;0.88;;;9.70;63.60;;;;;;5045101;28;20470;-85
2022/01/16 10:50:10;;;;;;;1.77;0.70;;;9.70;63.60;;;;;;5040118;28;20095;-81
2022/01/16 10:53:02;;;;;;;1.00;0.88;;;9.70;63.60;;;;;;5039512;28;20037;-82
2022/01/16 10:55:39;;;;;;;2.28;1.02;;;9.70;63.80;;;;;;5003993;28;20515;-85
2022/01/16 10:58:06;;;;;;;2.42;1.00;;;9.80;63.60;;;;;;5061592;28;20095;-85
2022/01/16 11:00:32;;;;;;;1.85;1.08;;;9.80;63.30;;;;;;5046366;28;20029;-84
2022/01/16 11:03:02;;;;;;;2.13;1.13;;;9.70;63.40;;;;;;5032730;28;20025;-85
2022/01/16 11:05:31;;;;;;;1.30;0.80;;;9.80;63.40;;;;;;5051878;28;20110;-83
2022/01/16 11:08:00;;;;;;;1.45;0.73;;;9.70;63.40;;;;;;5054541;28;20136;-83
2022/01/16 11:10:42;;;;;;;1.80;0.77;;;9.70;63.50;;;;;;5050131;28;20040;-87
2022/01/16 11:13:10;;;;;;;2.67;0.80;;;9.70;63.50;;;;;;5052739;28;20527;-86
2022/01/16 11:15:38;;;;;;;4.07;0.95;;;9.70;63.50;;;;;;5046087;28;20072;-87
2022/01/16 11:18:06;;;;;;;2.60;1.05;;;9.80;63.50;;;;;;5031155;28;20151;-87
2022/01/16 11:20:36;;;;;;;1.33;1.20;;;9.70;63.40;;;;;;5048307;28;20048;-89
2022/01/16 11:23:30;;;;;;;2.08;1.00;;;9.70;63.30;;;;;;5043758;28;20132;-90
2022/01/16 11:26:03;;;;;;;2.08;1.15;;;9.70;63.20;;;;;;5048228;28;20032;-89
2022/01/16 11:28:30;;;;;;;1.20;0.98;;;9.80;63.30;;;;;;5042357;28;20037;-88
2022/01/16 11:30:58;;;;;;;2.85;1.27;;;9.70;63.30;;;;;;5045064;28;20111;-89
2022/01/16 11:33:26;;;;;;;1.88;1.58;;;9.70;63.20;;;;;;5054245;28;20037;-89
2022/01/16 11:35:58;;;;;;;2.30;1.38;;;9.70;63.30;;;;;;5050636;28;20036;-89
2022/01/16 11:38:31;;;;;;;1.77;1.10;;;9.80;63.40;;;;;;5058809;28;20032;-91
2022/01/16 11:41:03;;;;;;;3.38;1.30;;;9.80;64.40;;;;;;5041283;28;20128;-88
2022/01/16 11:43:35;;;;;;;2.90;1.13;;;9.80;66.00;;;;;;5063348;28;20029;-85
2022/01/16 11:46:20;;;;;;;2.95;1.50;;;9.80;66.80;;;;;;5056165;28;20027;-85
2022/01/16 11:48:58;;;;;;;4.93;1.60;;;9.80;66.40;;;;;;5050831;28;20067;-85
2022/01/16 11:51:35;;;;;;;3.33;1.45;;;9.80;65.70;;;;;;5069293;28;20654;-84
2022/01/16 11:54:01;;;;;;;2.95;1.15;;;9.80;65.30;;;;;;5055301;28;20504;-85
2022/01/16 11:56:40;;;;;;;2.25;1.25;;;9.80;65.00;;;;;;5037320;28;20033;-85
2022/01/16 11:59:28;;;;;;;4.07;1.48;;;9.80;64.70;;;;;;5050827;28;20040;-87
2022/01/16 12:02:00;;;;;;;3.08;1.63;;;9.80;64.30;;;;;;5055350;28;20092;-86
2022/01/16 12:04:29;;;;;;;4.30;2.40;;;9.80;64.10;;;;;;5046208;28;20490;-89
2022/01/16 12:07:07;;;;;;;3.45;2.15;;;9.70;63.70;;;;;;5048308;28;20144;-86
2022/01/16 12:12:28;;;;;;;3.15;1.67;;;9.80;64.00;;;;;;5048675;28;20033;-86
2022/01/16 12:14:59;;;;;;;5.32;2.05;;;9.70;64.20;;;;;;5044479;28;20143;-85
2022/01/16 12:17:40;;;;;;;3.70;2.33;;;9.70;64.30;;;;;;5049721;28;20060;-85
2022/01/16 12:20:12;;;;;;;6.93;1.75;;;9.80;64.30;;;;;;5048626;28;20040;-85
2022/01/16 12:22:56;;;;;;;4.45;2.13;;;9.70;64.20;;;;;;5048670;28;20116;-85
2022/01/16 12:25:31;;;;;;;2.75;1.58;;;9.70;63.90;;;;;;5047297;28;20025;-86
2022/01/16 12:28:01;;;;;;;2.95;1.60;;;9.80;63.90;;;;;;5048583;28;20043;-85
2022/01/16 12:31:02;;;;;;;2.15;1.30;;;9.70;63.80;;;;;;5049731;28;20037;-84
2022/01/16 12:33:42;;;;;;;3.00;1.30;;;9.70;63.70;;;;;;5049514;28;20434;-83
2022/01/16 12:36:15;;;;;;;4.05;1.38;;;9.70;63.70;;;;;;5050049;28;20041;-85
2022/01/16 12:38:51;;;;;;;4.43;1.42;;;9.70;63.60;;;;;;5047954;28;20057;-85
2022/01/16 12:41:28;;;;;;;4.93;1.45;;;9.70;63.60;;;;;;5051169;28;20037;-89
2022/01/16 12:44:05;;;;;;;4.45;1.65;;;9.70;63.60;;;;;;5047395;28;20247;-87
2022/01/16 12:46:41;;;;;;;3.22;1.30;;;9.70;63.50;;;;;;5059417;28;20056;-91
2022/01/16 12:49:13;;;;;;;3.20;1.38;;;9.70;63.60;;;;;;5048777;28;20070;-87
2022/01/16 12:51:42;;;;;;;2.80;1.08;;;9.70;63.60;;;;;;5055916;28;20037;-88
2022/01/16 12:54:11;;;;;;;3.25;1.52;;;9.70;63.70;;;;;;5073132;28;20023;-91
2022/01/16 12:56:49;;;;;;;3.60;1.95;;;9.80;63.50;;;;;;5084790;28;20009;-89
2022/01/16 12:59:19;;;;;;;3.80;2.17;;;9.70;63.20;;;;;;5079978;28;20041;-90
2022/01/16 13:01:54;;;;;;;4.22;2.85;;;9.70;62.90;;;;;;5060530;28;20017;-85
2022/01/16 13:04:43;;;;;;;10.38;3.78;;;9.70;62.60;;;;;;5055115;28;20037;-90
2022/01/16 13:07:15;;;;;;;6.63;4.00;;;9.70;63.50;;;;;;5049831;28;20102;-89
2022/01/16 13:09:41;;;;;;;6.65;3.67;;;9.70;63.50;;;;;;5048732;28;20044;-92
2022/01/16 13:12:12;;;;;;;7.72;3.67;;;9.70;63.20;;;;;;5044622;28;20036;-91
2022/01/16 13:14:42;;;;;;;6.75;3.05;;;9.70;62.80;;;;;;5048806;28;20041;-95
2022/01/16 13:17:10;;;;;;;5.43;2.75;;;9.70;62.50;;;;;;5040568;28;20423;-91
2022/01/16 13:19:57;;;;;;;5.50;3.00;;;9.70;62.30;;;;;;5045707;28;20045;-91
2022/01/16 13:22:24;;;;;;;;;;;9.70;62.10;;;;;;5061331;28;20055;-89
2022/01/16 13:25:03;;;;;;;4.35;2.40;;;9.70;61.90;;;;;;5028532;28;19916;-90
2022/01/16 13:27:38;;;;;;;4.20;2.58;;;9.70;62.10;;;;;;5053816;28;20059;-92
2022/01/16 13:30:11;;;;;;;5.73;2.63;;;9.70;62.30;;;;;;5051145;28;20033;-91
2022/01/16 13:32:39;;;;;;;5.65;2.80;;;9.70;62.40;;;;;;5064141;28;20086;-90
2022/01/16 13:35:18;;;;;;;4.90;2.30;;;9.70;62.50;;;;;;5042526;28;20063;-95
2022/01/16 13:37:47;;;;;;;3.20;2.05;;;9.70;62.40;;;;;;5060416;28;20029;-95
2022/01/16 13:40:16;;;;;;;3.95;2.45;;;9.70;62.20;;;;;;5054433;28;20044;-90
2022/01/16 13:45:39;;;;;;;7.68;2.40;;;9.70;61.90;;;;;;5074539;28;20052;-86
2022/01/16 13:48:22;;;;;;;3.75;2.25;;;9.70;61.90;;;;;;5064174;28;20041;-90
2022/01/16 13:50:50;;;;;;;4.57;1.98;;;9.70;61.90;;;;;;5063469;28;20025;-93
2022/01/16 13:53:21;;;;;;;3.08;2.17;;;9.70;61.60;;;;;;5068151;28;20036;-93
2022/01/16 13:55:49;;;;;;;3.30;1.83;;;9.70;61.40;;;;;;5063952;28;20037;-88
2022/01/16 13:58:18;;;;;;;2.70;1.70;;;9.70;61.30;;;;;;5070876;28;20041;-93
2022/01/16 14:00:44;;;;;;;4.78;1.98;;;9.70;61.20;;;;;;5056723;28;20033;-93
2022/01/16 14:03:13;;;;;;;4.80;2.00;;;9.70;61.20;;;;;;5040452;28;20069;-89
2022/01/16 14:05:45;;;;;;;4.60;1.55;;;9.70;61.10;;;;;;5053198;28;20035;-91